sensor_id;sensor_type;location;lat;lon;timestamp;P1;durP1;ratioP1;P2;durP2;ratioP2
12232;SDS011;6179;51.748;8.728;2023-04-29T00:05:43;11.90;;;6.30;;
12232;SDS011;6179;51.748;8.728;2023-04-29T00:11:44;14.20;;;7.30;;
12232;SDS011;6179;51.748;8.728;2023-04-29T00:17:46;15.30;;;5.57;;
12232;SDS011;6179;51.748;8.728;2023-04-29T00:23:47;15.63;;;8.10;;
12232;SDS011;6179;51.748;8.728;2023-04-29T00:29:47;15.70;;;7.80;;
12232;SDS011;6179;51.748;8.728;2023-04-29T00:35:48;14.00;;;7.13;;
12232;SDS011;6179;51.748;8.728;2023-04-29T00:41:49;12.20;;;6.53;;
12232;SDS011;6179;51.748;8.728;2023-04-29T00:47:49;21.70;;;9.43;;
12232;SDS011;6179;51.748;8.728;2023-04-29T00:53:50;19.40;;;9.83;;
12232;SDS011;6179;51.748;8.728;2023-04-29T00:59:51;21.27;;;11.00;;
12232;SDS011;6179;51.748;8.728;2023-04-29T01:05:54;18.40;;;9.20;;
12232;SDS011;6179;51.748;8.728;2023-04-29T01:18:36;25.70;;;12.37;;
12232;SDS011;6179;51.748;8.728;2023-04-29T01:24:40;26.50;;;12.20;;
12232;SDS011;6179;51.748;8.728;2023-04-29T01:30:49;20.00;;;9.17;;
12232;SDS011;6179;51.748;8.728;2023-04-29T01:43:09;41.03;;;14.70;;
12232;SDS011;6179;51.748;8.728;2023-04-29T01:49:11;39.00;;;16.10;;
12232;SDS011;6179;51.748;8.728;2023-04-29T01:55:12;31.97;;;14.97;;
12232;SDS011;6179;51.748;8.728;2023-04-29T02:01:12;30.47;;;13.80;;
12232;SDS011;6179;51.748;8.728;2023-04-29T02:07:14;34.93;;;14.53;;
12232;SDS011;6179;51.748;8.728;2023-04-29T02:13:39;36.33;;;14.60;;
12232;SDS011;6179;51.748;8.728;2023-04-29T02:20:05;34.83;;;16.70;;
12232;SDS011;6179;51.748;8.728;2023-04-29T02:26:32;45.97;;;17.30;;
12232;SDS011;6179;51.748;8.728;2023-04-29T02:32:58;41.00;;;16.50;;
12232;SDS011;6179;51.748;8.728;2023-04-29T02:39:03;51.83;;;17.27;;
12232;SDS011;6179;51.748;8.728;2023-04-29T02:45:04;51.90;;;16.40;;
12232;SDS011;6179;51.748;8.728;2023-04-29T02:51:05;74.03;;;20.70;;
12232;SDS011;6179;51.748;8.728;2023-04-29T02:57:06;44.37;;;18.30;;
12232;SDS011;6179;51.748;8.728;2023-04-29T03:03:07;62.80;;;20.40;;
12232;SDS011;6179;51.748;8.728;2023-04-29T03:09:07;45.40;;;15.77;;
12232;SDS011;6179;51.748;8.728;2023-04-29T03:15:08;62.30;;;16.80;;
12232;SDS011;6179;51.748;8.728;2023-04-29T03:21:09;43.73;;;16.87;;
12232;SDS011;6179;51.748;8.728;2023-04-29T03:27:10;49.40;;;17.70;;
12232;SDS011;6179;51.748;8.728;2023-04-29T03:33:10;56.13;;;17.30;;
12232;SDS011;6179;51.748;8.728;2023-04-29T03:39:11;47.60;;;16.97;;
12232;SDS011;6179;51.748;8.728;2023-04-29T03:45:12;42.50;;;15.10;;
12232;SDS011;6179;51.748;8.728;2023-04-29T03:51:13;40.00;;;12.73;;
12232;SDS011;6179;51.748;8.728;2023-04-29T03:57:14;42.47;;;14.47;;
12232;SDS011;6179;51.748;8.728;2023-04-29T04:03:14;51.43;;;16.33;;
12232;SDS011;6179;51.748;8.728;2023-04-29T04:09:15;34.93;;;12.13;;
12232;SDS011;6179;51.748;8.728;2023-04-29T04:15:16;40.33;;;15.57;;
12232;SDS011;6179;51.748;8.728;2023-04-29T04:21:17;34.17;;;15.23;;
12232;SDS011;6179;51.748;8.728;2023-04-29T04:27:17;41.87;;;15.07;;
12232;SDS011;6179;51.748;8.728;2023-04-29T04:33:18;41.80;;;16.23;;
12232;SDS011;6179;51.748;8.728;2023-04-29T04:39:18;45.07;;;18.50;;
12232;SDS011;6179;51.748;8.728;2023-04-29T04:45:19;40.80;;;14.30;;
12232;SDS011;6179;51.748;8.728;2023-04-29T04:51:21;42.33;;;12.97;;
12232;SDS011;6179;51.748;8.728;2023-04-29T04:57:21;39.03;;;13.40;;
12232;SDS011;6179;51.748;8.728;2023-04-29T05:03:22;44.57;;;13.90;;
12232;SDS011;6179;51.748;8.728;2023-04-29T05:09:23;33.83;;;14.90;;
12232;SDS011;6179;51.748;8.728;2023-04-29T05:15:23;36.47;;;14.03;;
12232;SDS011;6179;51.748;8.728;2023-04-29T05:21:26;33.27;;;14.90;;
12232;SDS011;6179;51.748;8.728;2023-04-29T05:27:26;40.00;;;13.50;;
12232;SDS011;6179;51.748;8.728;2023-04-29T05:33:27;30.60;;;12.43;;
12232;SDS011;6179;51.748;8.728;2023-04-29T05:39:28;39.63;;;14.60;;
12232;SDS011;6179;51.748;8.728;2023-04-29T05:45:29;27.03;;;12.10;;
12232;SDS011;6179;51.748;8.728;2023-04-29T05:51:30;34.83;;;12.80;;
12232;SDS011;6179;51.748;8.728;2023-04-29T05:57:31;28.97;;;15.00;;
12232;SDS011;6179;51.748;8.728;2023-04-29T06:03:31;38.00;;;15.80;;
12232;SDS011;6179;51.748;8.728;2023-04-29T06:09:36;32.03;;;14.10;;
12232;SDS011;6179;51.748;8.728;2023-04-29T06:15:37;37.47;;;16.87;;
12232;SDS011;6179;51.748;8.728;2023-04-29T06:21:38;41.77;;;15.57;;
12232;SDS011;6179;51.748;8.728;2023-04-29T06:27:39;42.67;;;17.50;;
12232;SDS011;6179;51.748;8.728;2023-04-29T06:33:39;39.27;;;16.73;;
12232;SDS011;6179;51.748;8.728;2023-04-29T06:39:40;53.63;;;19.83;;
12232;SDS011;6179;51.748;8.728;2023-04-29T06:45:44;39.60;;;16.27;;
12232;SDS011;6179;51.748;8.728;2023-04-29T06:51:46;46.77;;;18.17;;
12232;SDS011;6179;51.748;8.728;2023-04-29T06:57:47;41.90;;;16.30;;
12232;SDS011;6179;51.748;8.728;2023-04-29T07:03:47;40.53;;;18.50;;
12232;SDS011;6179;51.748;8.728;2023-04-29T07:09:48;42.57;;;16.37;;
12232;SDS011;6179;51.748;8.728;2023-04-29T07:15:50;45.87;;;16.60;;
12232;SDS011;6179;51.748;8.728;2023-04-29T07:21:51;32.67;;;12.10;;
12232;SDS011;6179;51.748;8.728;2023-04-29T07:27:52;34.13;;;12.07;;
12232;SDS011;6179;51.748;8.728;2023-04-29T07:33:52;30.83;;;14.80;;
12232;SDS011;6179;51.748;8.728;2023-04-29T07:39:54;28.67;;;14.27;;
12232;SDS011;6179;51.748;8.728;2023-04-29T07:45:54;38.80;;;12.63;;
12232;SDS011;6179;51.748;8.728;2023-04-29T07:51:55;34.00;;;13.03;;
12232;SDS011;6179;51.748;8.728;2023-04-29T07:57:56;28.93;;;12.47;;
12232;SDS011;6179;51.748;8.728;2023-04-29T08:03:57;34.53;;;13.20;;
12232;SDS011;6179;51.748;8.728;2023-04-29T08:09:58;33.77;;;12.60;;
12232;SDS011;6179;51.748;8.728;2023-04-29T08:15:58;28.63;;;13.50;;
12232;SDS011;6179;51.748;8.728;2023-04-29T08:21:59;30.00;;;14.30;;
12232;SDS011;6179;51.748;8.728;2023-04-29T08:28:00;30.17;;;13.90;;
12232;SDS011;6179;51.748;8.728;2023-04-29T08:34:00;28.40;;;13.70;;
12232;SDS011;6179;51.748;8.728;2023-04-29T08:40:01;29.97;;;13.87;;
12232;SDS011;6179;51.748;8.728;2023-04-29T08:46:02;30.13;;;16.37;;
12232;SDS011;6179;51.748;8.728;2023-04-29T08:52:04;36.30;;;17.80;;
12232;SDS011;6179;51.748;8.728;2023-04-29T08:58:04;29.83;;;14.20;;
12232;SDS011;6179;51.748;8.728;2023-04-29T09:10:19;26.97;;;15.00;;
12232;SDS011;6179;51.748;8.728;2023-04-29T09:24:02;19.03;;;10.13;;
12232;SDS011;6179;51.748;8.728;2023-04-29T09:30:02;19.70;;;11.33;;
12232;SDS011;6179;51.748;8.728;2023-04-29T09:36:04;16.53;;;10.40;;
12232;SDS011;6179;51.748;8.728;2023-04-29T09:42:05;25.83;;;12.60;;
12232;SDS011;6179;51.748;8.728;2023-04-29T09:48:06;14.90;;;8.57;;
12232;SDS011;6179;51.748;8.728;2023-04-29T09:54:21;15.70;;;9.57;;
12232;SDS011;6179;51.748;8.728;2023-04-29T10:00:23;33.10;;;12.83;;
12232;SDS011;6179;51.748;8.728;2023-04-29T10:06:26;26.23;;;12.90;;
12232;SDS011;6179;51.748;8.728;2023-04-29T10:18:55;20.30;;;11.80;;
12232;SDS011;6179;51.748;8.728;2023-04-29T10:24:59;23.93;;;13.47;;
12232;SDS011;6179;51.748;8.728;2023-04-29T10:31:01;17.67;;;11.43;;
12232;SDS011;6179;51.748;8.728;2023-04-29T10:37:09;18.73;;;10.33;;
12232;SDS011;6179;51.748;8.728;2023-04-29T10:43:11;20.00;;;10.97;;
12232;SDS011;6179;51.748;8.728;2023-04-29T10:49:12;21.83;;;12.00;;
12232;SDS011;6179;51.748;8.728;2023-04-29T10:55:14;21.57;;;9.57;;
12232;SDS011;6179;51.748;8.728;2023-04-29T11:01:15;17.20;;;10.40;;
12232;SDS011;6179;51.748;8.728;2023-04-29T11:07:26;18.23;;;9.80;;
12232;SDS011;6179;51.748;8.728;2023-04-29T11:19:53;11.20;;;7.30;;
12232;SDS011;6179;51.748;8.728;2023-04-29T11:25:55;9.03;;;6.10;;
12232;SDS011;6179;51.748;8.728;2023-04-29T11:32:02;13.40;;;6.43;;
12232;SDS011;6179;51.748;8.728;2023-04-29T11:38:03;17.47;;;6.70;;
12232;SDS011;6179;51.748;8.728;2023-04-29T11:44:08;9.33;;;6.87;;
12232;SDS011;6179;51.748;8.728;2023-04-29T11:50:12;12.50;;;7.27;;
12232;SDS011;6179;51.748;8.728;2023-04-29T11:56:15;11.37;;;7.70;;
12232;SDS011;6179;51.748;8.728;2023-04-29T12:02:16;11.63;;;7.30;;
12232;SDS011;6179;51.748;8.728;2023-04-29T12:08:26;17.03;;;7.43;;
12232;SDS011;6179;51.748;8.728;2023-04-29T12:21:48;15.30;;;8.40;;
12232;SDS011;6179;51.748;8.728;2023-04-29T12:27:49;12.47;;;7.63;;
12232;SDS011;6179;51.748;8.728;2023-04-29T12:33:52;8.10;;;5.90;;
12232;SDS011;6179;51.748;8.728;2023-04-29T12:39:54;12.07;;;6.17;;
12232;SDS011;6179;51.748;8.728;2023-04-29T12:52:09;14.83;;;6.43;;
12232;SDS011;6179;51.748;8.728;2023-04-29T12:58:09;8.13;;;6.23;;
12232;SDS011;6179;51.748;8.728;2023-04-29T13:04:10;8.83;;;6.13;;
12232;SDS011;6179;51.748;8.728;2023-04-29T13:10:11;8.30;;;6.47;;
12232;SDS011;6179;51.748;8.728;2023-04-29T13:16:12;11.00;;;6.90;;
12232;SDS011;6179;51.748;8.728;2023-04-29T13:22:13;10.90;;;7.27;;
12232;SDS011;6179;51.748;8.728;2023-04-29T13:28:13;10.00;;;7.33;;
12232;SDS011;6179;51.748;8.728;2023-04-29T13:34:14;8.00;;;5.83;;
12232;SDS011;6179;51.748;8.728;2023-04-29T13:40:15;14.70;;;7.83;;
12232;SDS011;6179;51.748;8.728;2023-04-29T13:46:15;11.87;;;5.07;;
12232;SDS011;6179;51.748;8.728;2023-04-29T13:52:16;10.97;;;4.63;;
12232;SDS011;6179;51.748;8.728;2023-04-29T13:58:17;8.70;;;5.20;;
12232;SDS011;6179;51.748;8.728;2023-04-29T14:04:17;7.27;;;4.97;;
12232;SDS011;6179;51.748;8.728;2023-04-29T14:10:18;5.10;;;4.43;;
12232;SDS011;6179;51.748;8.728;2023-04-29T14:16:19;5.67;;;4.40;;
12232;SDS011;6179;51.748;8.728;2023-04-29T14:22:20;8.07;;;5.23;;
12232;SDS011;6179;51.748;8.728;2023-04-29T14:28:20;8.60;;;5.23;;
12232;SDS011;6179;51.748;8.728;2023-04-29T14:34:21;8.70;;;5.50;;
12232;SDS011;6179;51.748;8.728;2023-04-29T14:40:22;11.40;;;5.90;;
12232;SDS011;6179;51.748;8.728;2023-04-29T14:46:23;6.87;;;4.70;;
12232;SDS011;6179;51.748;8.728;2023-04-29T14:52:24;12.80;;;4.70;;
12232;SDS011;6179;51.748;8.728;2023-04-29T14:58:25;6.33;;;4.60;;
12232;SDS011;6179;51.748;8.728;2023-04-29T15:04:25;12.10;;;3.30;;
12232;SDS011;6179;51.748;8.728;2023-04-29T15:10:27;4.50;;;4.10;;
12232;SDS011;6179;51.748;8.728;2023-04-29T15:16:28;6.30;;;4.43;;
12232;SDS011;6179;51.748;8.728;2023-04-29T15:22:29;5.50;;;4.97;;
12232;SDS011;6179;51.748;8.728;2023-04-29T15:28:30;6.53;;;3.70;;
12232;SDS011;6179;51.748;8.728;2023-04-29T15:34:30;3.83;;;3.10;;
12232;SDS011;6179;51.748;8.728;2023-04-29T15:40:31;9.07;;;4.10;;
12232;SDS011;6179;51.748;8.728;2023-04-29T15:46:31;5.60;;;4.23;;
12232;SDS011;6179;51.748;8.728;2023-04-29T15:52:32;17.00;;;4.80;;
12232;SDS011;6179;51.748;8.728;2023-04-29T15:58:33;3.90;;;3.50;;
12232;SDS011;6179;51.748;8.728;2023-04-29T16:04:34;6.13;;;4.77;;
12232;SDS011;6179;51.748;8.728;2023-04-29T16:10:35;5.00;;;3.30;;
12232;SDS011;6179;51.748;8.728;2023-04-29T16:16:35;5.83;;;3.30;;
12232;SDS011;6179;51.748;8.728;2023-04-29T16:22:43;6.80;;;4.33;;
12232;SDS011;6179;51.748;8.728;2023-04-29T16:28:43;12.43;;;4.90;;
12232;SDS011;6179;51.748;8.728;2023-04-29T16:34:44;5.63;;;3.30;;
12232;SDS011;6179;51.748;8.728;2023-04-29T16:40:44;4.87;;;2.63;;
12232;SDS011;6179;51.748;8.728;2023-04-29T16:46:45;6.97;;;3.67;;
12232;SDS011;6179;51.748;8.728;2023-04-29T16:52:46;5.80;;;3.07;;
12232;SDS011;6179;51.748;8.728;2023-04-29T16:58:47;7.20;;;2.80;;
12232;SDS011;6179;51.748;8.728;2023-04-29T17:04:48;5.37;;;3.40;;
12232;SDS011;6179;51.748;8.728;2023-04-29T17:10:50;6.70;;;3.50;;
12232;SDS011;6179;51.748;8.728;2023-04-29T17:16:52;6.90;;;3.40;;
12232;SDS011;6179;51.748;8.728;2023-04-29T17:22:53;4.50;;;2.87;;
12232;SDS011;6179;51.748;8.728;2023-04-29T17:28:54;4.03;;;2.70;;
12232;SDS011;6179;51.748;8.728;2023-04-29T17:34:54;5.33;;;2.90;;
12232;SDS011;6179;51.748;8.728;2023-04-29T17:40:56;8.63;;;2.93;;
12232;SDS011;6179;51.748;8.728;2023-04-29T17:46:57;4.70;;;1.93;;
12232;SDS011;6179;51.748;8.728;2023-04-29T17:52:57;4.20;;;1.70;;
12232;SDS011;6179;51.748;8.728;2023-04-29T17:58:58;3.70;;;1.97;;
12232;SDS011;6179;51.748;8.728;2023-04-29T18:05:00;1.70;;;1.60;;
12232;SDS011;6179;51.748;8.728;2023-04-29T18:11:02;1.43;;;1.33;;
12232;SDS011;6179;51.748;8.728;2023-04-29T18:17:02;2.23;;;1.77;;
12232;SDS011;6179;51.748;8.728;2023-04-29T18:23:03;2.87;;;1.50;;
12232;SDS011;6179;51.748;8.728;2023-04-29T18:29:03;2.00;;;1.83;;
12232;SDS011;6179;51.748;8.728;2023-04-29T18:35:04;3.63;;;1.83;;
12232;SDS011;6179;51.748;8.728;2023-04-29T18:41:05;1.67;;;1.47;;
12232;SDS011;6179;51.748;8.728;2023-04-29T18:47:07;3.93;;;1.73;;
12232;SDS011;6179;51.748;8.728;2023-04-29T18:53:08;5.33;;;1.90;;
12232;SDS011;6179;51.748;8.728;2023-04-29T18:59:08;6.73;;;2.13;;
12232;SDS011;6179;51.748;8.728;2023-04-29T19:05:11;4.40;;;1.40;;
12232;SDS011;6179;51.748;8.728;2023-04-29T19:11:13;4.30;;;2.40;;
12232;SDS011;6179;51.748;8.728;2023-04-29T19:17:13;3.53;;;2.03;;
12232;SDS011;6179;51.748;8.728;2023-04-29T19:23:14;9.63;;;4.40;;
12232;SDS011;6179;51.748;8.728;2023-04-29T19:29:15;7.90;;;3.17;;
12232;SDS011;6179;51.748;8.728;2023-04-29T19:35:15;6.10;;;2.90;;
12232;SDS011;6179;51.748;8.728;2023-04-29T19:41:16;5.50;;;2.80;;
12232;SDS011;6179;51.748;8.728;2023-04-29T19:47:17;4.63;;;3.20;;
12232;SDS011;6179;51.748;8.728;2023-04-29T19:53:17;7.37;;;3.20;;
12232;SDS011;6179;51.748;8.728;2023-04-29T19:59:18;6.67;;;3.73;;
12232;SDS011;6179;51.748;8.728;2023-04-29T20:05:19;6.40;;;3.60;;
12232;SDS011;6179;51.748;8.728;2023-04-29T20:11:20;9.90;;;4.27;;
12232;SDS011;6179;51.748;8.728;2023-04-29T20:17:23;6.30;;;4.83;;
12232;SDS011;6179;51.748;8.728;2023-04-29T20:23:24;11.90;;;4.10;;
12232;SDS011;6179;51.748;8.728;2023-04-29T20:29:25;10.10;;;5.43;;
12232;SDS011;6179;51.748;8.728;2023-04-29T20:35:26;6.60;;;4.60;;
12232;SDS011;6179;51.748;8.728;2023-04-29T20:41:27;17.53;;;4.70;;
12232;SDS011;6179;51.748;8.728;2023-04-29T20:47:28;10.20;;;3.70;;
12232;SDS011;6179;51.748;8.728;2023-04-29T20:53:28;3.47;;;3.13;;
12232;SDS011;6179;51.748;8.728;2023-04-29T20:59:30;5.07;;;3.40;;
12232;SDS011;6179;51.748;8.728;2023-04-29T21:05:32;8.17;;;3.20;;
12232;SDS011;6179;51.748;8.728;2023-04-29T21:11:33;4.03;;;3.20;;
12232;SDS011;6179;51.748;8.728;2023-04-29T21:17:33;4.27;;;2.30;;
12232;SDS011;6179;51.748;8.728;2023-04-29T21:23:34;6.33;;;1.83;;
12232;SDS011;6179;51.748;8.728;2023-04-29T21:29:35;5.80;;;3.17;;
12232;SDS011;6179;51.748;8.728;2023-04-29T21:35:39;6.80;;;3.30;;
12232;SDS011;6179;51.748;8.728;2023-04-29T21:41:42;6.23;;;2.67;;
12232;SDS011;6179;51.748;8.728;2023-04-29T21:47:43;7.30;;;3.50;;
12232;SDS011;6179;51.748;8.728;2023-04-29T21:53:44;3.20;;;2.30;;
12232;SDS011;6179;51.748;8.728;2023-04-29T21:59:44;3.10;;;2.70;;
12232;SDS011;6179;51.748;8.728;2023-04-29T22:05:45;5.10;;;2.47;;
12232;SDS011;6179;51.748;8.728;2023-04-29T22:11:46;4.43;;;2.50;;
12232;SDS011;6179;51.748;8.728;2023-04-29T22:17:46;3.57;;;2.10;;
12232;SDS011;6179;51.748;8.728;2023-04-29T22:23:47;5.17;;;2.50;;
12232;SDS011;6179;51.748;8.728;2023-04-29T22:29:48;4.27;;;2.17;;
12232;SDS011;6179;51.748;8.728;2023-04-29T22:35:48;5.40;;;2.33;;
12232;SDS011;6179;51.748;8.728;2023-04-29T22:41:49;2.57;;;2.37;;
12232;SDS011;6179;51.748;8.728;2023-04-29T22:47:50;2.60;;;1.63;;
12232;SDS011;6179;51.748;8.728;2023-04-29T22:53:50;5.33;;;2.40;;
12232;SDS011;6179;51.748;8.728;2023-04-29T22:59:54;3.97;;;1.73;;
12232;SDS011;6179;51.748;8.728;2023-04-29T23:05:58;5.83;;;2.63;;
12232;SDS011;6179;51.748;8.728;2023-04-29T23:11:59;3.53;;;1.97;;
12232;SDS011;6179;51.748;8.728;2023-04-29T23:18:01;5.77;;;2.93;;
12232;SDS011;6179;51.748;8.728;2023-04-29T23:24:02;3.50;;;3.00;;
12232;SDS011;6179;51.748;8.728;2023-04-29T23:30:02;3.33;;;2.10;;
12232;SDS011;6179;51.748;8.728;2023-04-29T23:36:04;4.17;;;2.53;;
12232;SDS011;6179;51.748;8.728;2023-04-29T23:42:04;6.03;;;3.20;;
12232;SDS011;6179;51.748;8.728;2023-04-29T23:48:05;2.90;;;2.50;;
12232;SDS011;6179;51.748;8.728;2023-04-29T23:54:13;4.23;;;2.10;;
